createdAt,value
2017-11-29T00:00:29.087Z,20.40
2017-11-29T00:02:56.065Z,19.40
2017-11-29T00:05:23.125Z,23.93
2017-11-29T00:07:49.447Z,19.60
2017-11-29T00:10:15.882Z,21.30
2017-11-29T00:12:42.980Z,19.37
2017-11-29T00:15:09.321Z,21.20
2017-11-29T00:17:35.636Z,20.37
2017-11-29T00:20:01.970Z,19.53
2017-11-29T00:22:28.298Z,21.90
2017-11-29T00:24:54.639Z,23.30
2017-11-29T00:27:20.953Z,20.60
2017-11-29T00:29:47.261Z,19.70
2017-11-29T00:32:13.585Z,22.60
2017-11-29T00:34:39.925Z,23.77
2017-11-29T00:37:06.266Z,21.10
2017-11-29T00:39:32.603Z,26.83
2017-11-29T00:41:58.899Z,21.03
2017-11-29T00:44:25.219Z,18.43
2017-11-29T00:46:51.574Z,19.93
2017-11-29T00:49:17.896Z,21.03
2017-11-29T00:51:44.230Z,20.57
2017-11-29T00:54:10.615Z,20.07
2017-11-29T00:56:36.939Z,22.93
2017-11-29T00:59:03.270Z,22.50
2017-11-29T01:01:29.608Z,19.47
2017-11-29T01:03:56.700Z,20.87
2017-11-29T01:06:23.041Z,24.30
2017-11-29T01:08:49.349Z,22.83
2017-11-29T01:11:15.660Z,24.43
2017-11-29T01:13:42.693Z,22.50
2017-11-29T01:16:09.015Z,22.90
2017-11-29T01:18:36.786Z,20.87
2017-11-29T01:21:04.173Z,26.80
2017-11-29T01:23:31.809Z,22.80
2017-11-29T01:25:58.979Z,24.77
2017-11-29T01:28:25.318Z,22.97
2017-11-29T01:30:51.646Z,22.67
2017-11-29T01:33:18.728Z,24.83
2017-11-29T01:35:45.276Z,22.33
2017-11-29T01:38:11.611Z,20.70
2017-11-29T01:40:39.547Z,24.53
2017-11-29T01:43:05.891Z,23.80
2017-11-29T01:45:32.204Z,23.53
2017-11-29T01:47:58.535Z,26.40
2017-11-29T01:50:24.921Z,25.20
2017-11-29T01:52:51.230Z,24.10
2017-11-29T01:55:17.562Z,29.53
2017-11-29T01:57:44.678Z,24.63
2017-11-29T02:00:11.015Z,27.80
2017-11-29T02:02:37.470Z,28.97
2017-11-29T02:05:04.722Z,28.43
2017-11-29T02:07:31.044Z,28.07
2017-11-29T02:09:57.488Z,28.33
2017-11-29T02:12:24.704Z,28.33
2017-11-29T02:14:50.998Z,22.70
2017-11-29T02:17:17.290Z,25.47
2017-11-29T02:19:43.719Z,27.23
2017-11-29T02:22:10.266Z,27.53
2017-11-29T02:24:36.627Z,25.67
2017-11-29T02:27:03.096Z,27.33
2017-11-29T02:29:29.486Z,24.50
2017-11-29T02:31:56.536Z,25.43
2017-11-29T02:34:23.610Z,27.10
2017-11-29T02:36:50.833Z,29.83
2017-11-29T02:39:17.203Z,27.90
2017-11-29T02:41:55.885Z,28.83
2017-11-29T02:44:22.182Z,27.40
2017-11-29T02:46:48.492Z,28.57
2017-11-29T02:49:14.822Z,28.30
2017-11-29T02:51:41.137Z,29.10
2017-11-29T02:54:07.611Z,31.47
2017-11-29T02:56:34.055Z,26.30
2017-11-29T02:59:01.164Z,25.37
2017-11-29T03:01:27.521Z,26.93
2017-11-29T03:03:53.858Z,24.10
2017-11-29T03:06:20.340Z,22.77
2017-11-29T03:08:47.289Z,23.60
2017-11-29T03:11:13.811Z,22.90
2017-11-29T03:13:40.290Z,23.10
2017-11-29T03:16:06.658Z,20.40
2017-11-29T03:18:33.724Z,22.30
2017-11-29T03:21:00.044Z,21.90
2017-11-29T03:23:27.067Z,23.63
2017-11-29T03:25:53.366Z,21.90
2017-11-29T03:28:20.454Z,22.23
2017-11-29T03:30:46.755Z,19.40
2017-11-29T03:33:13.052Z,21.67
2017-11-29T03:35:39.350Z,24.30
2017-11-29T03:38:05.631Z,18.90
2017-11-29T03:40:31.917Z,22.53
2017-11-29T03:42:58.955Z,20.63
2017-11-29T03:45:26.034Z,19.30
2017-11-29T03:47:52.310Z,22.93
2017-11-29T03:50:18.683Z,19.60
2017-11-29T03:52:45.021Z,22.63
2017-11-29T03:55:12.046Z,21.60
2017-11-29T03:57:39.071Z,21.23
2017-11-29T04:00:05.388Z,20.13
2017-11-29T04:02:31.686Z,21.00
2017-11-29T04:04:57.981Z,22.90
2017-11-29T04:07:24.286Z,22.70
2017-11-29T04:09:50.633Z,21.03
2017-11-29T04:12:17.016Z,24.93
2017-11-29T04:14:43.321Z,25.90
2017-11-29T04:17:09.731Z,25.30
2017-11-29T04:19:36.797Z,25.90
2017-11-29T04:22:03.135Z,27.40
2017-11-29T04:24:29.507Z,25.60
2017-11-29T04:26:55.846Z,23.40
2017-11-29T04:29:22.244Z,24.50
2017-11-29T04:31:48.814Z,35.20
2017-11-29T04:34:15.995Z,26.40
2017-11-29T04:36:43.064Z,29.37
2017-11-29T04:39:10.155Z,28.70
2017-11-29T04:41:36.489Z,29.77
2017-11-29T04:44:02.877Z,28.93
2017-11-29T04:46:29.196Z,27.37
2017-11-29T04:48:56.248Z,26.50
2017-11-29T04:51:22.670Z,30.83
2017-11-29T04:53:49.123Z,25.67
2017-11-29T04:56:15.519Z,29.07
2017-11-29T04:58:42.600Z,32.60
2017-11-29T05:01:09.008Z,30.20
2017-11-29T05:03:36.234Z,34.33
2017-11-29T05:06:02.761Z,30.87
2017-11-29T05:08:30.062Z,30.20
2017-11-29T05:10:56.584Z,29.87
2017-11-29T05:13:23.652Z,27.67
2017-11-29T05:15:50.817Z,26.30
2017-11-29T05:18:17.193Z,28.63
2017-11-29T05:20:44.359Z,29.53
2017-11-29T05:23:11.426Z,26.70
2017-11-29T05:25:37.751Z,32.40
2017-11-29T05:28:04.810Z,28.50
2017-11-29T05:30:31.149Z,32.77
2017-11-29T05:32:57.494Z,27.57
2017-11-29T05:35:23.828Z,29.73
2017-11-29T05:37:50.159Z,27.80
2017-11-29T05:40:16.484Z,29.00
2017-11-29T05:42:42.858Z,31.50
2017-11-29T05:45:09.913Z,29.40
2017-11-29T05:47:36.982Z,28.83
2017-11-29T05:50:03.307Z,28.53
2017-11-29T05:52:29.628Z,28.80
2017-11-29T05:54:55.973Z,27.67
2017-11-29T05:57:22.309Z,28.63
2017-11-29T05:59:48.643Z,32.57
2017-11-29T06:02:14.972Z,32.33
2017-11-29T06:04:41.338Z,29.57
2017-11-29T06:07:07.669Z,26.77
2017-11-29T06:09:34.000Z,27.13
2017-11-29T06:12:00.309Z,28.83
2017-11-29T06:14:26.641Z,30.53
2017-11-29T06:16:52.975Z,29.90
2017-11-29T06:19:19.311Z,30.60
2017-11-29T06:21:45.617Z,33.10
2017-11-29T06:24:11.954Z,30.30
2017-11-29T06:26:38.457Z,27.20
2017-11-29T06:29:04.884Z,28.97
2017-11-29T06:31:31.948Z,30.10
2017-11-29T06:33:59.006Z,28.67
2017-11-29T06:36:25.295Z,28.40
2017-11-29T06:38:51.626Z,29.73
2017-11-29T06:41:18.515Z,29.63
2017-11-29T06:43:45.857Z,31.10
2017-11-29T06:46:12.204Z,28.43
2017-11-29T06:48:38.507Z,30.40
2017-11-29T06:51:05.565Z,27.53
2017-11-29T06:53:32.595Z,32.30
2017-11-29T06:55:59.646Z,29.80
2017-11-29T06:58:26.694Z,25.50
2017-11-29T07:00:53.774Z,30.27
2017-11-29T07:03:20.069Z,30.87
2017-11-29T07:05:47.159Z,32.40
2017-11-29T07:08:13.469Z,31.73
2017-11-29T07:10:39.768Z,31.10
2017-11-29T07:13:06.054Z,28.07
2017-11-29T07:15:32.446Z,31.33
2017-11-29T07:17:59.492Z,29.73
2017-11-29T07:20:26.541Z,28.37
2017-11-29T07:22:53.564Z,31.50
2017-11-29T07:25:19.870Z,31.60
2017-11-29T07:27:46.223Z,29.53
2017-11-29T07:30:12.554Z,28.90
2017-11-29T07:32:38.900Z,33.57
2017-11-29T07:35:05.961Z,30.20
2017-11-29T07:37:32.290Z,28.53
2017-11-29T07:39:59.348Z,28.20
2017-11-29T07:42:25.664Z,27.70
2017-11-29T07:44:52.712Z,29.40
2017-11-29T07:47:19.052Z,26.87
2017-11-29T07:49:45.381Z,26.20
2017-11-29T07:52:11.698Z,27.00
2017-11-29T07:54:38.731Z,25.80
2017-11-29T07:57:05.048Z,30.60
2017-11-29T07:59:31.380Z,28.70
2017-11-29T08:01:58.463Z,29.40
2017-11-29T08:04:24.843Z,31.03
2017-11-29T08:06:51.189Z,28.20
2017-11-29T08:09:17.502Z,27.97
2017-11-29T08:11:44.221Z,29.77
2017-11-29T08:14:10.645Z,31.13
2017-11-29T08:16:36.983Z,33.07
2017-11-29T08:19:03.322Z,36.83
2017-11-29T08:21:29.647Z,31.87
2017-11-29T08:23:55.996Z,31.17
2017-11-29T08:26:22.327Z,28.43
2017-11-29T08:28:48.709Z,28.40
2017-11-29T08:31:15.072Z,29.67
2017-11-29T08:33:41.437Z,34.10
2017-11-29T08:36:08.542Z,29.43
2017-11-29T08:38:34.881Z,27.80
2017-11-29T08:41:01.641Z,27.43
2017-11-29T08:43:28.973Z,28.27
2017-11-29T08:45:56.098Z,27.77
2017-11-29T08:48:22.448Z,26.40
2017-11-29T08:50:48.816Z,28.27
2017-11-29T08:53:16.161Z,29.77
2017-11-29T08:55:42.518Z,25.67
2017-11-29T08:58:09.624Z,26.10
2017-11-29T09:00:35.959Z,26.87
2017-11-29T09:03:02.311Z,28.73
2017-11-29T09:05:29.385Z,32.43
2017-11-29T09:07:55.741Z,30.00
2017-11-29T09:10:22.113Z,31.70
2017-11-29T09:12:49.232Z,34.60
2017-11-29T09:15:15.608Z,29.33
2017-11-29T09:17:42.676Z,35.17
2017-11-29T09:20:09.039Z,30.77
2017-11-29T09:22:35.430Z,30.80
2017-11-29T09:25:02.517Z,25.57
2017-11-29T09:27:28.842Z,32.23
2017-11-29T09:29:55.198Z,29.10
2017-11-29T09:32:21.718Z,32.07
2017-11-29T09:34:48.104Z,32.00
2017-11-29T09:37:14.445Z,28.83
2017-11-29T09:39:41.546Z,32.53
2017-11-29T09:42:07.892Z,31.40
2017-11-29T09:44:34.991Z,32.20
2017-11-29T09:47:01.368Z,27.40
2017-11-29T09:49:27.713Z,26.93
2017-11-29T09:51:54.811Z,31.03
2017-11-29T09:54:21.199Z,27.93
2017-11-29T09:56:48.281Z,24.70
2017-11-29T09:59:14.622Z,27.90
2017-11-29T10:01:41.018Z,26.47
2017-11-29T10:04:07.389Z,26.67
2017-11-29T10:06:33.751Z,23.67
2017-11-29T10:09:00.096Z,24.13
2017-11-29T10:11:26.435Z,25.70
2017-11-29T10:13:53.520Z,23.80
2017-11-29T10:16:19.856Z,23.20
2017-11-29T10:18:46.191Z,24.57
2017-11-29T10:21:12.544Z,27.20
2017-11-29T10:23:38.872Z,25.70
2017-11-29T10:26:05.215Z,25.77
2017-11-29T10:28:31.570Z,23.97
2017-11-29T10:30:58.632Z,27.10
2017-11-29T10:33:24.972Z,21.63
2017-11-29T10:35:51.308Z,24.80
2017-11-29T10:38:17.657Z,24.47
2017-11-29T10:40:43.991Z,23.00
2017-11-29T10:43:10.343Z,23.93
2017-11-29T10:45:37.453Z,21.40
2017-11-29T10:48:03.812Z,23.20
2017-11-29T10:50:30.132Z,27.03
2017-11-29T10:52:56.462Z,23.03
2017-11-29T10:55:22.816Z,23.20
2017-11-29T10:57:49.163Z,22.57
2017-11-29T11:00:26.215Z,22.03
2017-11-29T11:02:52.587Z,23.90
2017-11-29T11:05:19.676Z,22.00
2017-11-29T11:07:46.036Z,22.77
2017-11-29T11:10:12.370Z,18.60
2017-11-29T11:12:38.733Z,19.23
2017-11-29T11:15:05.089Z,19.87
2017-11-29T11:17:31.441Z,25.10
2017-11-29T11:19:57.820Z,25.77
2017-11-29T11:22:24.898Z,28.33
2017-11-29T11:24:51.306Z,28.30
2017-11-29T11:27:17.670Z,25.00
2017-11-29T11:29:44.031Z,23.90
2017-11-29T11:32:10.397Z,24.87
2017-11-29T11:34:36.752Z,24.23
2017-11-29T11:37:03.084Z,21.93
2017-11-29T11:39:29.432Z,23.20
2017-11-29T11:41:55.790Z,23.43
2017-11-29T11:44:22.183Z,19.20
2017-11-29T11:46:48.649Z,22.43
2017-11-29T11:49:15.042Z,22.20
2017-11-29T11:51:41.390Z,23.03
2017-11-29T11:54:07.731Z,23.87
2017-11-29T11:56:34.084Z,21.13
2017-11-29T11:59:00.440Z,21.40
2017-11-29T12:01:27.526Z,21.23
2017-11-29T12:03:53.870Z,22.33
2017-11-29T12:06:20.219Z,22.57
2017-11-29T12:08:46.558Z,21.13
2017-11-29T12:11:12.916Z,27.17
2017-11-29T12:13:39.273Z,26.13
2017-11-29T12:16:05.621Z,25.17
2017-11-29T12:18:31.975Z,22.90
2017-11-29T12:20:58.334Z,22.93
2017-11-29T12:23:24.694Z,22.77
2017-11-29T12:25:51.061Z,22.73
2017-11-29T12:28:17.457Z,23.03
2017-11-29T12:30:43.828Z,25.70
2017-11-29T12:33:10.920Z,24.20
2017-11-29T12:35:37.291Z,22.60
2017-11-29T12:38:03.621Z,29.50
2017-11-29T12:40:29.993Z,27.10
2017-11-29T12:42:57.064Z,26.53
2017-11-29T12:45:23.407Z,26.77
2017-11-29T12:47:49.749Z,28.20
2017-11-29T12:50:43.294Z,29.90
2017-11-29T12:53:09.599Z,25.37
2017-11-29T12:55:36.686Z,28.10
2017-11-29T12:58:03.026Z,28.10
2017-11-29T13:00:29.361Z,32.70
2017-11-29T13:02:55.702Z,32.23
2017-11-29T13:05:22.048Z,29.90
2017-11-29T13:07:49.169Z,30.77
2017-11-29T13:10:15.523Z,26.63
2017-11-29T13:12:41.880Z,27.83
2017-11-29T13:15:08.984Z,24.37
2017-11-29T13:17:35.374Z,26.13
2017-11-29T13:20:01.700Z,25.57
2017-11-29T13:22:28.088Z,23.80
2017-11-29T13:24:54.437Z,25.30
2017-11-29T13:27:20.767Z,25.60
2017-11-29T13:29:47.108Z,27.90
2017-11-29T13:32:13.421Z,27.10
2017-11-29T13:34:40.520Z,27.43
2017-11-29T13:37:06.880Z,28.27
2017-11-29T13:39:33.211Z,25.87
2017-11-29T13:41:59.553Z,26.67
2017-11-29T13:44:25.887Z,25.50
2017-11-29T13:46:52.266Z,29.10
2017-11-29T13:49:18.684Z,25.70
2017-11-29T13:51:45.048Z,30.17
2017-11-29T13:54:11.410Z,27.57
2017-11-29T13:56:37.757Z,29.53
2017-11-29T13:59:04.863Z,26.97
2017-11-29T14:01:31.221Z,28.30
2017-11-29T14:03:57.567Z,27.00
2017-11-29T14:06:23.917Z,26.60
2017-11-29T14:08:50.322Z,27.40
2017-11-29T14:11:16.663Z,26.07
2017-11-29T14:13:43.369Z,26.93
2017-11-29T14:16:09.959Z,29.93
2017-11-29T14:18:36.494Z,27.40
2017-11-29T14:21:02.897Z,25.87
2017-11-29T14:23:29.242Z,29.40
2017-11-29T14:25:55.559Z,28.20
2017-11-29T14:28:22.047Z,26.63
2017-11-29T14:30:48.357Z,24.97
2017-11-29T14:33:15.426Z,28.60
2017-11-29T14:35:41.706Z,26.27
2017-11-29T14:38:08.533Z,24.83
2017-11-29T14:40:35.731Z,26.10
2017-11-29T14:43:02.888Z,26.77
2017-11-29T14:45:29.942Z,21.90
2017-11-29T14:47:56.274Z,19.47
2017-11-29T14:50:23.441Z,21.73
2017-11-29T14:52:49.782Z,22.37
2017-11-29T14:55:16.087Z,20.90
2017-11-29T14:57:42.488Z,21.27
2017-11-29T15:00:10.270Z,20.73
2017-11-29T15:02:36.639Z,20.33
2017-11-29T15:05:02.961Z,20.43
2017-11-29T15:07:29.406Z,22.10
2017-11-29T15:09:55.703Z,21.50
2017-11-29T15:12:22.002Z,21.57
2017-11-29T15:14:48.308Z,21.53
2017-11-29T15:17:14.669Z,23.00
2017-11-29T15:19:41.717Z,21.53
2017-11-29T15:22:08.011Z,21.77
2017-11-29T15:24:34.376Z,24.03
2017-11-29T15:27:01.426Z,21.17
2017-11-29T15:29:28.507Z,23.17
2017-11-29T15:31:54.991Z,24.13
2017-11-29T15:34:21.311Z,23.20
2017-11-29T15:36:47.629Z,21.73
2017-11-29T15:39:13.956Z,23.90
2017-11-29T15:41:40.287Z,23.97
2017-11-29T15:44:06.636Z,23.10
2017-11-29T15:46:32.968Z,21.00
2017-11-29T15:48:59.302Z,20.00
2017-11-29T15:51:25.617Z,25.40
2017-11-29T15:53:51.959Z,21.57
2017-11-29T15:56:19.773Z,22.73
2017-11-29T15:58:46.095Z,19.97
2017-11-29T16:01:12.452Z,20.40
2017-11-29T16:03:38.772Z,20.50
2017-11-29T16:06:05.096Z,22.73
2017-11-29T16:08:31.408Z,21.63
2017-11-29T16:10:58.478Z,30.53
2017-11-29T16:13:24.821Z,21.37
2017-11-29T16:15:51.160Z,20.47
2017-11-29T16:18:17.507Z,20.97
2017-11-29T16:20:43.849Z,20.57
2017-11-29T16:23:10.167Z,20.33
2017-11-29T16:25:36.522Z,21.17
2017-11-29T16:28:02.834Z,20.50
2017-11-29T16:30:29.155Z,21.40
2017-11-29T16:32:55.470Z,25.10
2017-11-29T16:35:21.800Z,21.60
2017-11-29T16:37:48.124Z,20.03
2017-11-29T16:40:14.450Z,22.83
2017-11-29T16:42:40.870Z,21.90
2017-11-29T16:45:07.192Z,19.97
2017-11-29T16:47:33.512Z,19.43
2017-11-29T16:49:59.822Z,18.70
2017-11-29T16:52:26.136Z,19.33
2017-11-29T16:54:52.485Z,22.53
2017-11-29T16:57:19.393Z,19.53
2017-11-29T16:59:46.028Z,18.80
2017-11-29T17:02:12.408Z,20.23
2017-11-29T17:04:40.038Z,18.40
2017-11-29T17:07:06.779Z,19.30
2017-11-29T17:09:34.565Z,18.90
2017-11-29T17:12:02.348Z,19.87
2017-11-29T17:14:29.864Z,21.47
2017-11-29T17:16:56.912Z,21.37
2017-11-29T17:19:24.763Z,19.97
2017-11-29T17:21:52.244Z,18.67
2017-11-29T17:24:19.543Z,19.30
2017-11-29T17:26:46.255Z,19.23
2017-11-29T17:29:13.277Z,19.63
2017-11-29T17:31:41.342Z,19.33
2017-11-29T17:34:07.922Z,18.80
2017-11-29T17:36:35.587Z,20.70
2017-11-29T17:39:02.025Z,21.10
2017-11-29T17:41:28.358Z,19.20
2017-11-29T17:43:54.693Z,23.40
2017-11-29T17:46:21.097Z,20.27
2017-11-29T17:48:48.322Z,18.17
2017-11-29T17:51:15.058Z,19.33
2017-11-29T17:53:42.716Z,17.80
2017-11-29T17:56:09.768Z,17.20
2017-11-29T17:58:37.429Z,17.73
2017-11-29T18:01:04.758Z,18.27
2017-11-29T18:03:31.823Z,18.63
2017-11-29T18:05:58.763Z,20.37
2017-11-29T18:08:26.400Z,20.50
2017-11-29T18:10:52.792Z,19.10
2017-11-29T18:13:19.446Z,17.97
2017-11-29T18:15:45.810Z,20.57
2017-11-29T18:18:12.282Z,19.63
2017-11-29T18:20:41.187Z,19.63
2017-11-29T18:23:08.620Z,23.30
2017-11-29T18:25:37.829Z,19.43
2017-11-29T18:28:04.743Z,22.47
2017-11-29T18:30:31.513Z,18.73
2017-11-29T18:32:58.104Z,20.10
2017-11-29T18:35:24.443Z,18.97
2017-11-29T18:37:50.747Z,21.43
2017-11-29T18:40:17.090Z,18.00
2017-11-29T18:42:43.425Z,19.77
2017-11-29T18:45:09.754Z,18.53
2017-11-29T18:47:36.085Z,19.67
2017-11-29T18:50:02.432Z,18.37
2017-11-29T18:52:28.745Z,18.10
2017-11-29T18:54:55.056Z,18.67
2017-11-29T18:57:21.427Z,19.53
2017-11-29T18:59:47.772Z,18.60
2017-11-29T19:02:14.880Z,21.50
2017-11-29T19:04:41.272Z,22.67
2017-11-29T19:07:07.683Z,21.70
2017-11-29T19:09:34.071Z,21.50
2017-11-29T19:12:00.512Z,22.17
2017-11-29T19:14:26.882Z,24.90
2017-11-29T19:16:53.205Z,23.07
2017-11-29T19:19:19.544Z,20.37
2017-11-29T19:21:45.882Z,21.20
2017-11-29T19:24:12.196Z,22.97
2017-11-29T19:26:38.527Z,22.80
2017-11-29T19:29:04.880Z,21.03
2017-11-29T19:31:31.275Z,20.13
2017-11-29T19:33:57.710Z,23.03
2017-11-29T19:36:24.032Z,23.70
2017-11-29T19:38:50.339Z,23.43
2017-11-29T19:41:16.683Z,28.20
2017-11-29T19:43:43.078Z,21.97
2017-11-29T19:46:09.709Z,23.77
2017-11-29T19:48:36.809Z,24.43
2017-11-29T19:51:03.314Z,25.07
2017-11-29T19:53:30.554Z,24.57
2017-11-29T19:55:57.987Z,24.87
2017-11-29T19:58:24.538Z,24.97
2017-11-29T20:00:51.772Z,26.97
2017-11-29T20:03:18.474Z,25.83
2017-11-29T20:05:45.076Z,24.77
2017-11-29T20:08:12.262Z,26.83
2017-11-29T20:10:38.585Z,25.03
2017-11-29T20:13:04.923Z,24.20
2017-11-29T20:15:31.286Z,25.23
2017-11-29T20:17:58.376Z,24.50
2017-11-29T20:20:24.721Z,26.97
2017-11-29T20:22:51.050Z,26.53
2017-11-29T20:25:17.368Z,23.60
2017-11-29T20:27:44.446Z,25.50
2017-11-29T20:30:11.002Z,24.87
2017-11-29T20:32:37.352Z,24.77
2017-11-29T20:35:04.456Z,27.80
2017-11-29T20:37:30.994Z,24.90
2017-11-29T20:39:57.378Z,25.50
2017-11-29T20:42:24.428Z,27.50
2017-11-29T20:44:51.519Z,25.53
2017-11-29T20:47:17.854Z,23.60
2017-11-29T20:49:44.187Z,23.03
2017-11-29T20:52:15.444Z,24.27
2017-11-29T20:54:43.351Z,26.47
2017-11-29T20:57:10.419Z,26.67
2017-11-29T20:59:37.002Z,25.53
2017-11-29T21:02:03.334Z,26.70
2017-11-29T21:04:30.436Z,25.90
2017-11-29T21:06:57.226Z,27.87
2017-11-29T21:09:23.692Z,29.60
2017-11-29T21:11:50.075Z,29.73
2017-11-29T21:14:16.647Z,30.20
2017-11-29T21:16:42.994Z,29.93
2017-11-29T21:19:09.346Z,26.03
2017-11-29T21:21:35.680Z,28.63
2017-11-29T21:24:02.420Z,29.73
2017-11-29T21:26:29.562Z,30.00
2017-11-29T21:28:55.967Z,27.87
2017-11-29T21:31:22.475Z,28.93
2017-11-29T21:33:48.885Z,30.73
2017-11-29T21:36:15.262Z,30.60
2017-11-29T21:38:41.561Z,32.30
2017-11-29T21:41:07.960Z,25.27
2017-11-29T21:43:34.296Z,24.30
2017-11-29T21:46:00.616Z,23.60
2017-11-29T21:48:26.956Z,22.60
2017-11-29T21:50:53.466Z,24.80
2017-11-29T21:53:20.073Z,22.03
2017-11-29T21:55:46.445Z,23.03
2017-11-29T21:58:12.767Z,22.30
2017-11-29T22:00:39.122Z,24.67
2017-11-29T22:03:05.477Z,24.70
2017-11-29T22:05:31.767Z,22.97
2017-11-29T22:07:58.192Z,21.63
2017-11-29T22:10:24.514Z,25.63
2017-11-29T22:12:51.580Z,23.03
2017-11-29T22:15:17.889Z,24.30
2017-11-29T22:17:44.937Z,24.67
2017-11-29T22:20:11.254Z,26.40
2017-11-29T22:22:38.307Z,22.00
2017-11-29T22:25:05.381Z,23.60
2017-11-29T22:27:31.785Z,23.40
2017-11-29T22:29:58.841Z,24.00
2017-11-29T22:32:26.206Z,24.73
2017-11-29T22:34:52.526Z,26.40
2017-11-29T22:37:19.461Z,24.13
2017-11-29T22:39:45.561Z,25.03
2017-11-29T22:42:11.701Z,26.77
2017-11-29T22:44:37.785Z,25.03
2017-11-29T22:47:04.599Z,24.80
2017-11-29T22:49:30.978Z,27.90
2017-11-29T22:51:57.255Z,28.10
2017-11-29T22:54:24.311Z,29.47
2017-11-29T22:56:51.418Z,27.20
2017-11-29T22:59:18.518Z,26.03
2017-11-29T23:01:44.810Z,27.30
2017-11-29T23:04:11.887Z,27.00
2017-11-29T23:06:38.183Z,25.97
2017-11-29T23:09:05.249Z,29.33
2017-11-29T23:11:32.311Z,26.03
2017-11-29T23:13:58.671Z,30.43
2017-11-29T23:16:25.019Z,31.47
2017-11-29T23:18:51.522Z,25.57
2017-11-29T23:21:17.852Z,27.90
2017-11-29T23:23:44.210Z,31.20
2017-11-29T23:26:10.560Z,31.73
2017-11-29T23:28:36.915Z,28.50
2017-11-29T23:31:03.974Z,31.07
2017-11-29T23:33:30.292Z,29.53
2017-11-29T23:35:56.630Z,31.80
2017-11-29T23:38:22.959Z,28.73
2017-11-29T23:40:49.306Z,32.90
2017-11-29T23:43:15.632Z,31.20
2017-11-29T23:45:41.952Z,31.13
2017-11-29T23:48:08.300Z,28.37
2017-11-29T23:50:34.618Z,30.30
2017-11-29T23:53:00.960Z,35.63
2017-11-29T23:55:27.291Z,33.87
2017-11-29T23:57:53.632Z,31.70
